Saxaren — SKHW — position and weather

sailwx.info

Track history (hours):
 
Tides and Currents Weather Stations Pressure Air Temp Water Temp Dewpoint Dewpoint Depression Visibility Wind Speed Wind Dir Waves Ship Positions

Saxaren

Last reported at 2017-Jul-28 10:42 UTC. Time now 2017-Jul-28 12:57 UTC.
Position N 59°24' E 018°53'.

Length 37 m; draft 3 m.

Type: Passenger vessel. MMSI: 265512110.

Date/timePositionNaut miles runAvg speedWind from/ knotsBaromVisibWave heightAir tempDewpointWater temp
2017-Jul-28 10:42N 59°24' E 018°53'1 6.7
2017-Jul-28 10:30N 59°25' E 018°55'3 6.7
2017-Jul-28 10:00N 59°27' E 018°49'2 4.8
2017-Jul-28 09:30N 59°30' E 018°48'4 8.6
2017-Jul-28 09:01N 59°28' E 018°41'6 6.0
2017-Jul-28 08:00N 59°26' E 018°29'4 8.9
2017-Jul-28 07:31N 59°24' E 018°21'510.3
2017-Jul-28 07:00N 59°21' E 018°14'5 9.6
2017-Jul-28 06:30N 59°20' E 018°05'0 0.0
2017-Jul-28 06:00N 59°20' E 018°05'0 0.0
2017-Jul-28 05:30N 59°20' E 018°05'0 0.0
2017-Jul-28 05:00N 59°20' E 018°04'0 0.0
2017-Jul-28 04:31N 59°20' E 018°04'0 0.0
2017-Jul-28 04:00N 59°20' E 018°05'0 0.0
2017-Jul-28 03:30N 59°20' E 018°04'0 0.0
2017-Jul-28 03:00N 59°20' E 018°05'0 0.0
2017-Jul-28 02:30N 59°20' E 018°05'0 0.0
2017-Jul-28 02:00N 59°20' E 018°04'0 0.0
2017-Jul-28 01:30N 59°20' E 018°05'0 0.0
2017-Jul-28 01:00N 59°20' E 018°04'0 0.0
2017-Jul-28 00:30N 59°20' E 018°04'0 0.0
2017-Jul-28 00:00N 59°20' E 018°05'0 0.0
2017-Jul-27 23:30N 59°20' E 018°04'0 0.0
2017-Jul-27 23:00N 59°20' E 018°05'0 0.0
2017-Jul-27 22:30N 59°20' E 018°04'0 0.0
2017-Jul-27 22:01N 59°20' E 018°05'0 0.0
2017-Jul-27 21:30N 59°20' E 018°04'0 0.0
2017-Jul-27 21:00N 59°20' E 018°05'0 0.0
2017-Jul-27 20:31N 59°20' E 018°05'0 0.0
2017-Jul-27 20:00N 59°20' E 018°05'0 0.0
2017-Jul-27 19:30N 59°20' E 018°04'0 0.0
2017-Jul-27 19:00N 59°20' E 018°05'0 0.0
2017-Jul-27 18:30N 59°20' E 018°05'0 0.0
2017-Jul-27 18:00N 59°20' E 018°04'0 0.0
2017-Jul-27 17:31N 59°20' E 018°04'1 2.0
2017-Jul-27 17:00N 59°19' E 018°06'4 7.6
2017-Jul-27 16:30N 59°18' E 018°13'3 6.6
2017-Jul-27 16:00N 59°17' E 018°19'4 8.4
2017-Jul-27 15:30N 59°13' E 018°23'810.3
2017-Jul-27 14:45N 59°06' E 018°29'6 6.3
2017-Jul-27 13:45N 59°00' E 018°26'410.2
2017-Jul-27 13:23N 58°58' E 018°20'4 1.2
2017-Jul-27 10:07N 59°00' E 018°26'311.4
2017-Jul-27 09:53N 59°02' E 018°30'2 4.2
2017-Jul-27 09:27N 59°04' E 018°29'6 8.6
2017-Jul-27 08:47N 59°10' E 018°29'516.0
2017-Jul-27 08:30N 59°13' E 018°24'4 8.3
2017-Jul-27 08:01N 59°17' E 018°19'2 3.9
2017-Jul-27 07:30N 59°18' E 018°16'4 7.8
2017-Jul-27 07:00N 59°19' E 018°09'2 4.8
2017-Jul-27 06:31N 59°20' E 018°05'0 0.0
2017-Jul-27 06:00N 59°20' E 018°04'0 0.0
2017-Jul-27 05:30N 59°20' E 018°04'0 0.0
2017-Jul-27 05:00N 59°20' E 018°04'0 0.0
2017-Jul-27 04:31N 59°20' E 018°04'0 0.0
2017-Jul-27 04:00N 59°20' E 018°05'0 0.0
2017-Jul-27 03:30N 59°20' E 018°04'0 0.0
2017-Jul-27 03:00N 59°20' E 018°04'0 0.0
2017-Jul-27 02:30N 59°20' E 018°04'0 0.0
2017-Jul-27 02:00N 59°20' E 018°04'0 0.0
2017-Jul-27 01:30N 59°20' E 018°04'0 0.0
2017-Jul-27 01:00N 59°20' E 018°05'0 0.0
2017-Jul-27 00:30N 59°20' E 018°04'0 0.0
2017-Jul-27 00:00N 59°20' E 018°04'0 0.0
2017-Jul-26 23:30N 59°20' E 018°05'0 0.0
2017-Jul-26 23:00N 59°20' E 018°04'0 0.0
2017-Jul-26 22:31N 59°20' E 018°05'0 0.0
2017-Jul-26 22:01N 59°20' E 018°05'0 0.0
2017-Jul-26 21:30N 59°20' E 018°05'0 0.0
2017-Jul-26 21:00N 59°20' E 018°05'0 0.0
2017-Jul-26 20:30N 59°20' E 018°05'0 0.0
2017-Jul-26 20:00N 59°20' E 018°04'0 0.0
2017-Jul-26 19:31N 59°20' E 018°04'0 0.0
2017-Jul-26 19:01N 59°20' E 018°04'0 0.0
2017-Jul-26 18:30N 59°20' E 018°04'0 0.0
2017-Jul-26 18:01N 59°20' E 018°04'0 0.0
2017-Jul-26 17:30N 59°20' E 018°04'2 3.5
2017-Jul-26 17:01N 59°19' E 018°08'4 7.5
2017-Jul-26 16:30N 59°18' E 018°15'3 5.6
2017-Jul-26 16:00N 59°17' E 018°20'510.3
2017-Jul-26 15:29N 59°12' E 018°25'0 0.0
2017-Jul-26 08:37N 59°12' E 018°26'217.1
2017-Jul-26 08:30N 59°14' E 018°23'4 7.2
2017-Jul-26 07:59N 59°17' E 018°19'2 5.0
2017-Jul-26 07:30N 59°18' E 018°15'3 6.6
2017-Jul-26 07:00N 59°19' E 018°09'2 4.6
2017-Jul-26 06:30N 59°20' E 018°05'0 0.0
2017-Jul-26 06:00N 59°20' E 018°04'0 0.0
2017-Jul-26 05:30N 59°20' E 018°04'0 0.0
2017-Jul-26 05:01N 59°20' E 018°04'0 0.0
2017-Jul-26 04:29N 59°20' E 018°04'0 0.0
2017-Jul-26 04:00N 59°20' E 018°05'0 0.0
2017-Jul-26 03:31N 59°20' E 018°04'0 0.0
2017-Jul-26 03:01N 59°20' E 018°05'0 0.0
2017-Jul-26 02:30N 59°20' E 018°05'0 0.0
2017-Jul-26 02:00N 59°20' E 018°04'0 0.0
2017-Jul-26 01:30N 59°20' E 018°04'0 0.0
2017-Jul-26 01:00N 59°20' E 018°04'0 0.0
2017-Jul-26 00:30N 59°20' E 018°04'0 0.0
2017-Jul-26 00:00N 59°20' E 018°05'0 0.0
2017-Jul-25 23:31N 59°20' E 018°04'0 0.0
2017-Jul-25 23:00N 59°20' E 018°04'0 0.0
2017-Jul-25 22:30N 59°20' E 018°05'0 0.0
2017-Jul-25 22:01N 59°20' E 018°05'0 0.0
2017-Jul-25 21:30N 59°20' E 018°05'0 0.0
2017-Jul-25 21:00N 59°20' E 018°05'0 0.0
2017-Jul-25 20:31N 59°20' E 018°04'0 0.0
2017-Jul-25 20:01N 59°20' E 018°04'0 0.0
2017-Jul-25 19:30N 59°20' E 018°04'0 0.0
2017-Jul-25 19:00N 59°20' E 018°05'0 0.0
2017-Jul-25 18:30N 59°20' E 018°05'0 0.0
2017-Jul-25 18:00N 59°20' E 018°04'0 0.0
2017-Jul-25 17:30N 59°20' E 018°04'1 1.8
2017-Jul-25 17:00N 59°19' E 018°06'4 7.8
2017-Jul-25 16:31N 59°18' E 018°13'3 6.7
2017-Jul-25 16:00N 59°17' E 018°19'4 7.9
2017-Jul-25 15:30N 59°13' E 018°23'3 0.4
2017-Jul-25 08:41N 59°11' E 018°27'314.4
2017-Jul-25 08:30N 59°13' E 018°24'4 8.6
2017-Jul-25 08:00N 59°17' E 018°19'2 4.6
2017-Jul-25 07:30N 59°18' E 018°15'3 6.9
2017-Jul-25 07:00N 59°19' E 018°09'2 4.7
2017-Jul-25 06:30N 59°20' E 018°05'0 0.0
2017-Jul-25 06:00N 59°20' E 018°04'0 0.0
2017-Jul-25 05:30N 59°20' E 018°04'0 0.0
2017-Jul-25 05:00N 59°20' E 018°04'0 0.0
2017-Jul-25 04:30N 59°20' E 018°05'0 0.0
2017-Jul-25 03:59N 59°20' E 018°05'0 0.0
2017-Jul-25 03:30N 59°20' E 018°04'0 0.0
2017-Jul-25 03:00N 59°20' E 018°04'0 0.0
2017-Jul-25 02:30N 59°20' E 018°05'0 0.0
2017-Jul-25 02:00N 59°20' E 018°04'0 0.0
2017-Jul-25 01:30N 59°20' E 018°05'0 0.0
2017-Jul-25 01:00N 59°20' E 018°04'0 0.0
2017-Jul-25 00:30N 59°20' E 018°04'0 0.0
2017-Jul-25 00:00N 59°20' E 018°04'0 0.0
2017-Jul-24 23:30N 59°20' E 018°04'0 0.0
2017-Jul-24 23:00N 59°20' E 018°04'0 0.0
2017-Jul-24 22:30N 59°20' E 018°04'0 0.0
2017-Jul-24 22:00N 59°20' E 018°04'0 0.0
2017-Jul-24 21:30N 59°20' E 018°05'0 0.0
2017-Jul-24 21:00N 59°20' E 018°04'0 0.0
2017-Jul-24 20:30N 59°20' E 018°04'0 0.0
2017-Jul-24 20:00N 59°20' E 018°05'0 0.0
2017-Jul-24 19:30N 59°20' E 018°04'0 0.0
2017-Jul-24 19:00N 59°20' E 018°04'0 0.0
2017-Jul-24 18:30N 59°20' E 018°05'0 0.0
2017-Jul-24 18:00N 59°20' E 018°04'0 0.0
2017-Jul-24 17:30N 59°20' E 018°05'1 1.2
2017-Jul-24 17:00N 59°19' E 018°05'4 8.2
2017-Jul-24 16:30N 59°19' E 018°13'3 6.7
2017-Jul-24 16:00N 59°17' E 018°19'14 2.1
2017-Jul-24 09:25N 59°04' E 018°29'5 8.3
2017-Jul-24 08:47N 59°10' E 018°29'415.5
2017-Jul-24 08:30N 59°13' E 018°24'4 9.0
2017-Jul-24 08:00N 59°17' E 018°19'2 4.4
2017-Jul-24 07:30N 59°18' E 018°15'4 7.2
2017-Jul-24 07:00N 59°19' E 018°09'2 4.6
2017-Jul-24 06:31N 59°20' E 018°05'0 0.9
2017-Jul-24 06:00N 59°19' E 018°05'613.0
2017-Jul-24 05:30N 59°22' E 018°16'4 8.5
2017-Jul-24 05:01N 59°25' E 018°21'4 8.1
2017-Jul-24 04:30N 59°26' E 018°29'4 7.6
2017-Jul-24 04:00N 59°27' E 018°36'5 9.2
2017-Jul-24 03:31N 59°29' E 018°45'3 6.4
2017-Jul-24 03:00N 59°30' E 018°51'0 0.0
2017-Jul-24 02:30N 59°30' E 018°51'0 0.0
2017-Jul-24 02:01N 59°30' E 018°51'0 0.0
2017-Jul-24 01:30N 59°30' E 018°51'0 0.0
2017-Jul-24 01:00N 59°30' E 018°51'0 0.0
2017-Jul-24 00:30N 59°30' E 018°51'0 0.0
2017-Jul-23 23:59N 59°30' E 018°51'0 0.0
2017-Jul-23 23:30N 59°30' E 018°51'0 0.0
2017-Jul-23 23:01N 59°30' E 018°51'0 0.0
2017-Jul-23 22:30N 59°30' E 018°51'0 0.0
2017-Jul-23 22:00N 59°30' E 018°51'0 0.0
2017-Jul-23 21:30N 59°30' E 018°51'0 0.0
2017-Jul-23 21:00N 59°30' E 018°51'0 0.0
2017-Jul-23 20:23N 59°30' E 018°51'0 0.0
2017-Jul-23 19:44N 59°30' E 018°51'0 0.0
2017-Jul-23 19:25N 59°30' E 018°51'2 4.0
2017-Jul-23 19:00N 59°29' E 018°50'4 7.7
2017-Jul-23 18:26N 59°25' E 018°54'3 6.9
2017-Jul-23 18:00N 59°23' E 018°49'1 2.9
2017-Jul-23 17:30N 59°23' E 018°46'2 4.4
2017-Jul-23 17:00N 59°23' E 018°41'5 9.1
2017-Jul-23 16:28N 59°25' E 018°32'612.2
2017-Jul-23 16:00N 59°25' E 018°22'3 6.6
2017-Jul-23 15:30N 59°22' E 018°18'611.7
2017-Jul-23 15:00N 59°19' E 018°09'2 4.8
2017-Jul-23 14:30N 59°20' E 018°05'3 5.2
2017-Jul-23 14:00N 59°19' E 018°10'713.1
2017-Jul-23 13:30N 59°23' E 018°20'4 7.7
2017-Jul-23 13:00N 59°26' E 018°25'712.1
2017-Jul-23 12:26N 59°23' E 018°38'3 7.3
2017-Jul-23 12:00N 59°24' E 018°44'3 5.3
2017-Jul-23 11:30N 59°23' E 018°49'3 5.3
2017-Jul-23 10:59N 59°24' E 018°53'2 4.9
2017-Jul-23 10:30N 59°27' E 018°55'3 5.6
2017-Jul-23 10:01N 59°24' E 018°53'4 8.5
2017-Jul-23 09:30N 59°22' E 018°45'3 5.2
2017-Jul-23 09:01N 59°23' E 018°41'5 9.1
2017-Jul-23 08:30N 59°24' E 018°32'510.5
2017-Jul-23 08:00N 59°24' E 018°21'5 9.8
2017-Jul-23 07:30N 59°21' E 018°15'510.5
2017-Jul-23 07:00N 59°20' E 018°05'0 0.0
2017-Jul-23 06:30N 59°20' E 018°05'0 0.0
2017-Jul-23 06:00N 59°20' E 018°05'0 0.0
2017-Jul-23 05:30N 59°20' E 018°05'0 0.0
2017-Jul-23 05:00N 59°20' E 018°05'0 0.0
2017-Jul-23 04:30N 59°20' E 018°05'0 0.0
2017-Jul-23 04:00N 59°20' E 018°05'0 0.0
2017-Jul-23 03:30N 59°20' E 018°05'0 0.0
2017-Jul-23 03:00N 59°20' E 018°05'0 0.0
2017-Jul-23 02:30N 59°20' E 018°05'0 0.0
2017-Jul-23 02:00N 59°20' E 018°05'0 0.0
2017-Jul-23 01:30N 59°20' E 018°05'0 0.0
2017-Jul-23 01:00N 59°20' E 018°05'0 0.0
2017-Jul-23 00:30N 59°20' E 018°05'0 0.0
2017-Jul-23 00:00N 59°20' E 018°05'0 0.0
2017-Jul-22 23:30N 59°20' E 018°05'0 0.0
2017-Jul-22 23:00N 59°20' E 018°05'0 0.0
2017-Jul-22 22:30N 59°20' E 018°05'0 0.0
2017-Jul-22 22:00N 59°20' E 018°05'0 0.0
2017-Jul-22 21:30N 59°20' E 018°05'0 0.0
2017-Jul-22 21:00N 59°20' E 018°05'0 0.0
2017-Jul-22 20:30N 59°20' E 018°05'0 0.0
2017-Jul-22 20:00N 59°20' E 018°05'0 0.0
2017-Jul-22 19:30N 59°20' E 018°05'0 0.0
2017-Jul-22 19:00N 59°20' E 018°05'3 5.2
2017-Jul-22 18:30N 59°19' E 018°09'612.6
2017-Jul-22 18:00N 59°22' E 018°21'4 7.8
2017-Jul-22 17:30N 59°26' E 018°22'814.8
2017-Jul-22 17:00N 59°24' E 018°37'3 5.9
2017-Jul-22 16:30N 59°22' E 018°42'3 6.2
2017-Jul-22 16:00N 59°24' E 018°47'3 5.3
2017-Jul-22 15:26N 59°24' E 018°53'3 6.6
2017-Jul-22 15:00N 59°27' E 018°55'5 3.8
2017-Jul-22 13:45N 59°24' E 018°47'2 4.0
2017-Jul-22 13:13N 59°24' E 018°43'4 8.5
2017-Jul-22 12:48N 59°24' E 018°36'516.9
2017-Jul-22 12:31N 59°26' E 018°28'4 8.7
2017-Jul-22 12:00N 59°24' E 018°21'5 9.3
2017-Jul-22 11:31N 59°21' E 018°14'5 9.7
2017-Jul-22 11:00N 59°20' E 018°04'0 0.0
2017-Jul-22 10:30N 59°20' E 018°05'0 0.0
2017-Jul-22 10:00N 59°20' E 018°04'0 0.0
2017-Jul-22 09:30N 59°20' E 018°04'3 6.1
2017-Jul-22 09:00N 59°19' E 018°10'510.3
2017-Jul-22 08:30N 59°22' E 018°19'4 8.2
2017-Jul-22 08:00N 59°26' E 018°22'11 5.9
2017-Jul-22 06:05N 59°27' E 018°45'3 7.0
2017-Jul-22 05:38N 59°29' E 018°50'1 2.0
2017-Jul-22 05:01N 59°30' E 018°51'0 0.0
2017-Jul-22 05:00N 59°30' E 018°51'0 0.0
2017-Jul-22 04:30N 59°30' E 018°51'0 0.0
2017-Jul-22 04:00N 59°30' E 018°51'0 0.0
2017-Jul-22 03:26N 59°30' E 018°51'0 0.0
2017-Jul-22 02:59N 59°30' E 018°51'0 0.0
2017-Jul-22 02:30N 59°30' E 018°51'0 0.0
2017-Jul-22 01:50N 59°30' E 018°51'0 0.0
2017-Jul-22 01:28N 59°30' E 018°51'0 0.0
2017-Jul-22 01:00N 59°30' E 018°51'0 0.0
2017-Jul-21 23:43N 59°30' E 018°51'0 0.0
2017-Jul-21 23:30N 59°30' E 018°51'0 0.0
2017-Jul-21 22:59N 59°30' E 018°51'0 0.0
2017-Jul-21 22:30N 59°30' E 018°51'0 0.0
2017-Jul-21 21:54N 59°30' E 018°51'0 0.0
2017-Jul-21 21:29N 59°30' E 018°51'0 0.0
2017-Jul-21 20:11N 59°30' E 018°51'211.0
2017-Jul-21 20:00N 59°28' E 018°50'11 4.2
2017-Jul-21 17:22N 59°26' E 018°28'411.1
2017-Jul-21 17:00N 59°24' E 018°21'5 9.5
2017-Jul-21 16:31N 59°21' E 018°15'510.6
2017-Jul-21 16:00N 59°20' E 018°05'0 0.0
2017-Jul-21 15:30N 59°20' E 018°05'0 0.0
2017-Jul-21 15:00N 59°20' E 018°05'0 0.0
2017-Jul-21 14:30N 59°20' E 018°05'0 1.0
2017-Jul-21 14:00N 59°19' E 018°05'510.2
2017-Jul-21 13:30N 59°21' E 018°14'5 9.2
2017-Jul-21 13:00N 59°24' E 018°21'17 6.1
2017-Jul-21 10:15N 59°25' E 018°55'2 5.6
2017-Jul-21 09:58N 59°27' E 018°56'5 6.9
2017-Jul-21 09:18N 59°30' E 018°48'3 8.4
2017-Jul-21 08:56N 59°29' E 018°42'4 7.9
2017-Jul-21 08:28N 59°27' E 018°36'3 6.0
2017-Jul-21 08:00N 59°25' E 018°31'510.7
2017-Jul-21 07:30N 59°24' E 018°21'5 9.3
2017-Jul-21 07:01N 59°21' E 018°15'510.6
2017-Jul-21 06:30N 59°20' E 018°04'0 0.0
2017-Jul-21 06:00N 59°20' E 018°04'0 0.0
2017-Jul-21 05:30N 59°20' E 018°04'0 0.0
2017-Jul-21 05:00N 59°20' E 018°04'0 0.0
2017-Jul-21 04:30N 59°20' E 018°05'0 0.0
2017-Jul-21 04:00N 59°20' E 018°05'0 0.0
2017-Jul-21 03:30N 59°20' E 018°04'0 0.0
2017-Jul-21 03:00N 59°20' E 018°04'0 0.0
2017-Jul-21 02:30N 59°20' E 018°04'0 0.0
2017-Jul-21 02:00N 59°20' E 018°05'0 0.0
2017-Jul-21 01:30N 59°20' E 018°05'0 0.0
2017-Jul-21 01:00N 59°20' E 018°04'0 0.0
2017-Jul-21 00:30N 59°20' E 018°05'0 0.0
2017-Jul-21 00:00N 59°20' E 018°05'0 0.0
2017-Jul-20 23:30N 59°20' E 018°04'0 0.0
2017-Jul-20 23:00N 59°20' E 018°05'0 0.0
2017-Jul-20 22:30N 59°20' E 018°05'0 0.0
2017-Jul-20 22:00N 59°20' E 018°04'0 0.0
2017-Jul-20 21:30N 59°20' E 018°05'0 0.0
2017-Jul-20 21:00N 59°20' E 018°05'0 0.0
2017-Jul-20 20:30N 59°20' E 018°05'0 0.0
2017-Jul-20 20:00N 59°20' E 018°04'0 0.0
2017-Jul-20 19:30N 59°20' E 018°05'0 0.0
2017-Jul-20 19:00N 59°20' E 018°05'0 0.0
2017-Jul-20 18:30N 59°20' E 018°04'0 0.0
2017-Jul-20 18:00N 59°20' E 018°04'0 0.0
2017-Jul-20 17:30N 59°20' E 018°04'2 4.6
2017-Jul-20 17:00N 59°19' E 018°09'3 6.4
2017-Jul-20 16:30N 59°18' E 018°15'2 5.0
2017-Jul-20 16:00N 59°17' E 018°19'5 9.0
2017-Jul-20 15:31N 59°13' E 018°24'3 0.5
2017-Jul-20 08:52N 59°11' E 018°28'412.0
2017-Jul-20 08:30N 59°14' E 018°23'3 6.9
2017-Jul-20 08:00N 59°17' E 018°19'2 4.1
2017-Jul-20 07:31N 59°18' E 018°16'4 7.0
2017-Jul-20 07:00N 59°19' E 018°09'3 5.1
2017-Jul-20 06:30N 59°20' E 018°05'0 0.0
2017-Jul-20 06:00N 59°20' E 018°04'0 0.0
2017-Jul-20 05:30N 59°20' E 018°05'0 0.0
2017-Jul-20 05:00N 59°20' E 018°04'0 0.0
2017-Jul-20 04:30N 59°20' E 018°04'0 0.0
2017-Jul-20 04:00N 59°20' E 018°04'0 0.0
2017-Jul-20 03:30N 59°20' E 018°05'0 0.0
2017-Jul-20 03:00N 59°20' E 018°04'0 0.0
2017-Jul-20 02:30N 59°20' E 018°05'0 0.0
2017-Jul-20 02:00N 59°20' E 018°05'0 0.0
2017-Jul-20 01:30N 59°20' E 018°05'0 0.0
2017-Jul-20 01:00N 59°20' E 018°04'0 0.0
2017-Jul-20 00:30N 59°20' E 018°05'0 0.0
2017-Jul-20 00:00N 59°20' E 018°05'0 0.0
2017-Jul-19 23:30N 59°20' E 018°04'0 0.0
2017-Jul-19 23:00N 59°20' E 018°05'0 0.0
2017-Jul-19 22:30N 59°20' E 018°05'0 0.0
2017-Jul-19 22:00N 59°20' E 018°05'0 0.0
2017-Jul-19 21:31N 59°20' E 018°05'0 0.0
2017-Jul-19 21:00N 59°20' E 018°05'0 0.0
2017-Jul-19 20:30N 59°20' E 018°04'0 0.0
2017-Jul-19 20:00N 59°20' E 018°04'0 0.0
2017-Jul-19 19:30N 59°20' E 018°04'0 0.0
2017-Jul-19 19:00N 59°20' E 018°05'0 0.0
2017-Jul-19 18:31N 59°20' E 018°04'0 0.0
2017-Jul-19 18:00N 59°20' E 018°04'0 0.0
2017-Jul-19 17:30N 59°20' E 018°04'2 4.3
2017-Jul-19 17:00N 59°19' E 018°09'4 7.1
2017-Jul-19 16:31N 59°18' E 018°15'3 6.2
2017-Jul-19 16:00N 59°16' E 018°21'5 9.3
2017-Jul-19 15:30N 59°12' E 018°25'2 0.2
2017-Jul-19 08:44N 59°11' E 018°27'314.0
2017-Jul-19 08:29N 59°14' E 018°22'3 7.1
2017-Jul-19 08:00N 59°17' E 018°19'2 4.5
2017-Jul-19 07:30N 59°18' E 018°15'3 6.8
2017-Jul-19 07:00N 59°19' E 018°09'2 4.8
2017-Jul-19 06:30N 59°20' E 018°04'0 0.0
2017-Jul-19 06:00N 59°20' E 018°05'0 0.0
2017-Jul-19 05:30N 59°20' E 018°05'0 0.0
2017-Jul-19 05:00N 59°20' E 018°04'0 0.0
2017-Jul-19 04:30N 59°20' E 018°04'0 0.0
2017-Jul-19 04:00N 59°20' E 018°04'0 0.0
2017-Jul-19 03:30N 59°20' E 018°05'0 0.0
2017-Jul-19 03:00N 59°20' E 018°04'0 0.0
2017-Jul-19 02:30N 59°20' E 018°04'0 0.0
2017-Jul-19 02:00N 59°20' E 018°04'0 0.0
2017-Jul-19 01:30N 59°20' E 018°05'0 0.0
2017-Jul-19 01:00N 59°20' E 018°04'0 0.0
2017-Jul-19 00:30N 59°20' E 018°04'0 0.0
2017-Jul-19 00:00N 59°20' E 018°05'0 0.0
2017-Jul-18 23:30N 59°20' E 018°05'0 0.0
2017-Jul-18 23:00N 59°20' E 018°05'0 0.0
2017-Jul-18 22:30N 59°20' E 018°04'0 0.0
2017-Jul-18 22:00N 59°20' E 018°05'0 0.0
2017-Jul-18 21:30N 59°20' E 018°05'0 0.0
2017-Jul-18 21:00N 59°20' E 018°04'0 0.0
2017-Jul-18 20:30N 59°20' E 018°04'0 0.0
2017-Jul-18 20:00N 59°20' E 018°04'0 0.0
2017-Jul-18 19:30N 59°20' E 018°04'0 0.0
2017-Jul-18 19:00N 59°20' E 018°04'0 0.0
2017-Jul-18 18:30N 59°20' E 018°04'0 0.0
2017-Jul-18 18:00N 59°20' E 018°04'0 0.0
2017-Jul-18 17:30N 59°20' E 018°04'2 3.1
2017-Jul-18 17:00N 59°19' E 018°07'4 7.3
2017-Jul-18 16:30N 59°18' E 018°14'3 5.6
2017-Jul-18 16:00N 59°17' E 018°19'4 8.0
2017-Jul-18 15:30N 59°13' E 018°23'  
Track history (hours):
 
Tides and Currents Weather Stations Pressure Air Temp Water Temp Dewpoint Dewpoint Depression Visibility Wind Speed Wind Dir Waves Ship Positions

Saxaren

Last reported at 2017-Jul-28 10:42 UTC. Time now 2017-Jul-28 12:57 UTC.
Position N 59°24' E 018°53'.

Length 37 m; draft 3 m.

Type: Passenger vessel. MMSI: 265512110.

Date/timePositionNaut miles runAvg speedWind from/ knotsBaromVisibWave heightAir tempDewpointWater temp
2017-Jul-28 10:42N 59°24' E 018°53'1 6.7
2017-Jul-28 10:30N 59°25' E 018°55'3 6.7
2017-Jul-28 10:00N 59°27' E 018°49'2 4.8
2017-Jul-28 09:30N 59°30' E 018°48'4 8.6
2017-Jul-28 09:01N 59°28' E 018°41'6 6.0
2017-Jul-28 08:00N 59°26' E 018°29'4 8.9
2017-Jul-28 07:31N 59°24' E 018°21'510.3
2017-Jul-28 07:00N 59°21' E 018°14'5 9.6
2017-Jul-28 06:30N 59°20' E 018°05'0 0.0
2017-Jul-28 06:00N 59°20' E 018°05'0 0.0
2017-Jul-28 05:30N 59°20' E 018°05'0 0.0
2017-Jul-28 05:00N 59°20' E 018°04'0 0.0
2017-Jul-28 04:31N 59°20' E 018°04'0 0.0
2017-Jul-28 04:00N 59°20' E 018°05'0 0.0
2017-Jul-28 03:30N 59°20' E 018°04'0 0.0
2017-Jul-28 03:00N 59°20' E 018°05'0 0.0
2017-Jul-28 02:30N 59°20' E 018°05'0 0.0
2017-Jul-28 02:00N 59°20' E 018°04'0 0.0
2017-Jul-28 01:30N 59°20' E 018°05'0 0.0
2017-Jul-28 01:00N 59°20' E 018°04'0 0.0
2017-Jul-28 00:30N 59°20' E 018°04'0 0.0
2017-Jul-28 00:00N 59°20' E 018°05'0 0.0
2017-Jul-27 23:30N 59°20' E 018°04'0 0.0
2017-Jul-27 23:00N 59°20' E 018°05'0 0.0
2017-Jul-27 22:30N 59°20' E 018°04'0 0.0
2017-Jul-27 22:01N 59°20' E 018°05'0 0.0
2017-Jul-27 21:30N 59°20' E 018°04'0 0.0
2017-Jul-27 21:00N 59°20' E 018°05'0 0.0
2017-Jul-27 20:31N 59°20' E 018°05'0 0.0
2017-Jul-27 20:00N 59°20' E 018°05'0 0.0
2017-Jul-27 19:30N 59°20' E 018°04'0 0.0
2017-Jul-27 19:00N 59°20' E 018°05'0 0.0
2017-Jul-27 18:30N 59°20' E 018°05'0 0.0
2017-Jul-27 18:00N 59°20' E 018°04'0 0.0
2017-Jul-27 17:31N 59°20' E 018°04'1 2.0
2017-Jul-27 17:00N 59°19' E 018°06'4 7.6
2017-Jul-27 16:30N 59°18' E 018°13'3 6.6
2017-Jul-27 16:00N 59°17' E 018°19'4 8.4
2017-Jul-27 15:30N 59°13' E 018°23'810.3
2017-Jul-27 14:45N 59°06' E 018°29'6 6.3
2017-Jul-27 13:45N 59°00' E 018°26'410.2
2017-Jul-27 13:23N 58°58' E 018°20'4 1.2
2017-Jul-27 10:07N 59°00' E 018°26'311.4
2017-Jul-27 09:53N 59°02' E 018°30'2 4.2
2017-Jul-27 09:27N 59°04' E 018°29'6 8.6
2017-Jul-27 08:47N 59°10' E 018°29'516.0
2017-Jul-27 08:30N 59°13' E 018°24'4 8.3
2017-Jul-27 08:01N 59°17' E 018°19'2 3.9
2017-Jul-27 07:30N 59°18' E 018°16'4 7.8
2017-Jul-27 07:00N 59°19' E 018°09'2 4.8
2017-Jul-27 06:31N 59°20' E 018°05'0 0.0
2017-Jul-27 06:00N 59°20' E 018°04'0 0.0
2017-Jul-27 05:30N 59°20' E 018°04'0 0.0
2017-Jul-27 05:00N 59°20' E 018°04'0 0.0
2017-Jul-27 04:31N 59°20' E 018°04'0 0.0
2017-Jul-27 04:00N 59°20' E 018°05'0 0.0
2017-Jul-27 03:30N 59°20' E 018°04'0 0.0
2017-Jul-27 03:00N 59°20' E 018°04'0 0.0
2017-Jul-27 02:30N 59°20' E 018°04'0 0.0
2017-Jul-27 02:00N 59°20' E 018°04'0 0.0
2017-Jul-27 01:30N 59°20' E 018°04'0 0.0
2017-Jul-27 01:00N 59°20' E 018°05'0 0.0
2017-Jul-27 00:30N 59°20' E 018°04'0 0.0
2017-Jul-27 00:00N 59°20' E 018°04'0 0.0
2017-Jul-26 23:30N 59°20' E 018°05'0 0.0
2017-Jul-26 23:00N 59°20' E 018°04'0 0.0
2017-Jul-26 22:31N 59°20' E 018°05'0 0.0
2017-Jul-26 22:01N 59°20' E 018°05'0 0.0
2017-Jul-26 21:30N 59°20' E 018°05'0 0.0
2017-Jul-26 21:00N 59°20' E 018°05'0 0.0
2017-Jul-26 20:30N 59°20' E 018°05'0 0.0
2017-Jul-26 20:00N 59°20' E 018°04'0 0.0
2017-Jul-26 19:31N 59°20' E 018°04'0 0.0
2017-Jul-26 19:01N 59°20' E 018°04'0 0.0
2017-Jul-26 18:30N 59°20' E 018°04'0 0.0
2017-Jul-26 18:01N 59°20' E 018°04'0 0.0
2017-Jul-26 17:30N 59°20' E 018°04'2 3.5
2017-Jul-26 17:01N 59°19' E 018°08'4 7.5
2017-Jul-26 16:30N 59°18' E 018°15'3 5.6
2017-Jul-26 16:00N 59°17' E 018°20'510.3
2017-Jul-26 15:29N 59°12' E 018°25'0 0.0
2017-Jul-26 08:37N 59°12' E 018°26'217.1
2017-Jul-26 08:30N 59°14' E 018°23'4 7.2
2017-Jul-26 07:59N 59°17' E 018°19'2 5.0
2017-Jul-26 07:30N 59°18' E 018°15'3 6.6
2017-Jul-26 07:00N 59°19' E 018°09'2 4.6
2017-Jul-26 06:30N 59°20' E 018°05'0 0.0
2017-Jul-26 06:00N 59°20' E 018°04'0 0.0
2017-Jul-26 05:30N 59°20' E 018°04'0 0.0
2017-Jul-26 05:01N 59°20' E 018°04'0 0.0
2017-Jul-26 04:29N 59°20' E 018°04'0 0.0
2017-Jul-26 04:00N 59°20' E 018°05'0 0.0
2017-Jul-26 03:31N 59°20' E 018°04'0 0.0
2017-Jul-26 03:01N 59°20' E 018°05'0 0.0
2017-Jul-26 02:30N 59°20' E 018°05'0 0.0
2017-Jul-26 02:00N 59°20' E 018°04'0 0.0
2017-Jul-26 01:30N 59°20' E 018°04'0 0.0
2017-Jul-26 01:00N 59°20' E 018°04'0 0.0
2017-Jul-26 00:30N 59°20' E 018°04'0 0.0
2017-Jul-26 00:00N 59°20' E 018°05'0 0.0
2017-Jul-25 23:31N 59°20' E 018°04'0 0.0
2017-Jul-25 23:00N 59°20' E 018°04'0 0.0
2017-Jul-25 22:30N 59°20' E 018°05'0 0.0
2017-Jul-25 22:01N 59°20' E 018°05'0 0.0
2017-Jul-25 21:30N 59°20' E 018°05'0 0.0
2017-Jul-25 21:00N 59°20' E 018°05'0 0.0
2017-Jul-25 20:31N 59°20' E 018°04'0 0.0
2017-Jul-25 20:01N 59°20' E 018°04'0 0.0
2017-Jul-25 19:30N 59°20' E 018°04'0 0.0
2017-Jul-25 19:00N 59°20' E 018°05'0 0.0
2017-Jul-25 18:30N 59°20' E 018°05'0 0.0
2017-Jul-25 18:00N 59°20' E 018°04'0 0.0
2017-Jul-25 17:30N 59°20' E 018°04'1 1.8
2017-Jul-25 17:00N 59°19' E 018°06'4 7.8
2017-Jul-25 16:31N 59°18' E 018°13'3 6.7
2017-Jul-25 16:00N 59°17' E 018°19'4 7.9
2017-Jul-25 15:30N 59°13' E 018°23'3 0.4
2017-Jul-25 08:41N 59°11' E 018°27'314.4
2017-Jul-25 08:30N 59°13' E 018°24'4 8.6
2017-Jul-25 08:00N 59°17' E 018°19'2 4.6
2017-Jul-25 07:30N 59°18' E 018°15'3 6.9
2017-Jul-25 07:00N 59°19' E 018°09'2 4.7
2017-Jul-25 06:30N 59°20' E 018°05'0 0.0
2017-Jul-25 06:00N 59°20' E 018°04'0 0.0
2017-Jul-25 05:30N 59°20' E 018°04'0 0.0
2017-Jul-25 05:00N 59°20' E 018°04'0 0.0
2017-Jul-25 04:30N 59°20' E 018°05'0 0.0
2017-Jul-25 03:59N 59°20' E 018°05'0 0.0
2017-Jul-25 03:30N 59°20' E 018°04'0 0.0
2017-Jul-25 03:00N 59°20' E 018°04'0 0.0
2017-Jul-25 02:30N 59°20' E 018°05'0 0.0
2017-Jul-25 02:00N 59°20' E 018°04'0 0.0
2017-Jul-25 01:30N 59°20' E 018°05'0 0.0
2017-Jul-25 01:00N 59°20' E 018°04'0 0.0
2017-Jul-25 00:30N 59°20' E 018°04'0 0.0
2017-Jul-25 00:00N 59°20' E 018°04'0 0.0
2017-Jul-24 23:30N 59°20' E 018°04'0 0.0
2017-Jul-24 23:00N 59°20' E 018°04'0 0.0
2017-Jul-24 22:30N 59°20' E 018°04'0 0.0
2017-Jul-24 22:00N 59°20' E 018°04'0 0.0
2017-Jul-24 21:30N 59°20' E 018°05'0 0.0
2017-Jul-24 21:00N 59°20' E 018°04'0 0.0
2017-Jul-24 20:30N 59°20' E 018°04'0 0.0
2017-Jul-24 20:00N 59°20' E 018°05'0 0.0
2017-Jul-24 19:30N 59°20' E 018°04'0 0.0
2017-Jul-24 19:00N 59°20' E 018°04'0 0.0
2017-Jul-24 18:30N 59°20' E 018°05'0 0.0
2017-Jul-24 18:00N 59°20' E 018°04'0 0.0
2017-Jul-24 17:30N 59°20' E 018°05'1 1.2
2017-Jul-24 17:00N 59°19' E 018°05'4 8.2
2017-Jul-24 16:30N 59°19' E 018°13'3 6.7
2017-Jul-24 16:00N 59°17' E 018°19'14 2.1
2017-Jul-24 09:25N 59°04' E 018°29'5 8.3
2017-Jul-24 08:47N 59°10' E 018°29'415.5
2017-Jul-24 08:30N 59°13' E 018°24'4 9.0
2017-Jul-24 08:00N 59°17' E 018°19'2 4.4
2017-Jul-24 07:30N 59°18' E 018°15'4 7.2
2017-Jul-24 07:00N 59°19' E 018°09'2 4.6
2017-Jul-24 06:31N 59°20' E 018°05'0 0.9
2017-Jul-24 06:00N 59°19' E 018°05'613.0
2017-Jul-24 05:30N 59°22' E 018°16'4 8.5
2017-Jul-24 05:01N 59°25' E 018°21'4 8.1
2017-Jul-24 04:30N 59°26' E 018°29'4 7.6
2017-Jul-24 04:00N 59°27' E 018°36'5 9.2
2017-Jul-24 03:31N 59°29' E 018°45'3 6.4
2017-Jul-24 03:00N 59°30' E 018°51'0 0.0
2017-Jul-24 02:30N 59°30' E 018°51'0 0.0
2017-Jul-24 02:01N 59°30' E 018°51'0 0.0
2017-Jul-24 01:30N 59°30' E 018°51'0 0.0
2017-Jul-24 01:00N 59°30' E 018°51'0 0.0
2017-Jul-24 00:30N 59°30' E 018°51'0 0.0
2017-Jul-23 23:59N 59°30' E 018°51'0 0.0
2017-Jul-23 23:30N 59°30' E 018°51'0 0.0
2017-Jul-23 23:01N 59°30' E 018°51'0 0.0
2017-Jul-23 22:30N 59°30' E 018°51'0 0.0
2017-Jul-23 22:00N 59°30' E 018°51'0 0.0
2017-Jul-23 21:30N 59°30' E 018°51'0 0.0
2017-Jul-23 21:00N 59°30' E 018°51'0 0.0
2017-Jul-23 20:23N 59°30' E 018°51'0 0.0
2017-Jul-23 19:44N 59°30' E 018°51'0 0.0
2017-Jul-23 19:25N 59°30' E 018°51'2 4.0
2017-Jul-23 19:00N 59°29' E 018°50'4 7.7
2017-Jul-23 18:26N 59°25' E 018°54'3 6.9
2017-Jul-23 18:00N 59°23' E 018°49'1 2.9
2017-Jul-23 17:30N 59°23' E 018°46'2 4.4
2017-Jul-23 17:00N 59°23' E 018°41'5 9.1
2017-Jul-23 16:28N 59°25' E 018°32'612.2
2017-Jul-23 16:00N 59°25' E 018°22'3 6.6
2017-Jul-23 15:30N 59°22' E 018°18'611.7
2017-Jul-23 15:00N 59°19' E 018°09'2 4.8
2017-Jul-23 14:30N 59°20' E 018°05'3 5.2
2017-Jul-23 14:00N 59°19' E 018°10'713.1
2017-Jul-23 13:30N 59°23' E 018°20'4 7.7
2017-Jul-23 13:00N 59°26' E 018°25'712.1
2017-Jul-23 12:26N 59°23' E 018°38'3 7.3
2017-Jul-23 12:00N 59°24' E 018°44'3 5.3
2017-Jul-23 11:30N 59°23' E 018°49'3 5.3
2017-Jul-23 10:59N 59°24' E 018°53'2 4.9
2017-Jul-23 10:30N 59°27' E 018°55'3 5.6
2017-Jul-23 10:01N 59°24' E 018°53'4 8.5
2017-Jul-23 09:30N 59°22' E 018°45'3 5.2
2017-Jul-23 09:01N 59°23' E 018°41'5 9.1
2017-Jul-23 08:30N 59°24' E 018°32'510.5
2017-Jul-23 08:00N 59°24' E 018°21'5 9.8
2017-Jul-23 07:30N 59°21' E 018°15'510.5
2017-Jul-23 07:00N 59°20' E 018°05'0 0.0
2017-Jul-23 06:30N 59°20' E 018°05'0 0.0
2017-Jul-23 06:00N 59°20' E 018°05'0 0.0
2017-Jul-23 05:30N 59°20' E 018°05'0 0.0
2017-Jul-23 05:00N 59°20' E 018°05'0 0.0
2017-Jul-23 04:30N 59°20' E 018°05'0 0.0
2017-Jul-23 04:00N 59°20' E 018°05'0 0.0
2017-Jul-23 03:30N 59°20' E 018°05'0 0.0
2017-Jul-23 03:00N 59°20' E 018°05'0 0.0
2017-Jul-23 02:30N 59°20' E 018°05'0 0.0
2017-Jul-23 02:00N 59°20' E 018°05'0 0.0
2017-Jul-23 01:30N 59°20' E 018°05'0 0.0
2017-Jul-23 01:00N 59°20' E 018°05'0 0.0
2017-Jul-23 00:30N 59°20' E 018°05'0 0.0
2017-Jul-23 00:00N 59°20' E 018°05'0 0.0
2017-Jul-22 23:30N 59°20' E 018°05'0 0.0
2017-Jul-22 23:00N 59°20' E 018°05'0 0.0
2017-Jul-22 22:30N 59°20' E 018°05'0 0.0
2017-Jul-22 22:00N 59°20' E 018°05'0 0.0
2017-Jul-22 21:30N 59°20' E 018°05'0 0.0
2017-Jul-22 21:00N 59°20' E 018°05'0 0.0
2017-Jul-22 20:30N 59°20' E 018°05'0 0.0
2017-Jul-22 20:00N 59°20' E 018°05'0 0.0
2017-Jul-22 19:30N 59°20' E 018°05'0 0.0
2017-Jul-22 19:00N 59°20' E 018°05'3 5.2
2017-Jul-22 18:30N 59°19' E 018°09'612.6
2017-Jul-22 18:00N 59°22' E 018°21'4 7.8
2017-Jul-22 17:30N 59°26' E 018°22'814.8
2017-Jul-22 17:00N 59°24' E 018°37'3 5.9
2017-Jul-22 16:30N 59°22' E 018°42'3 6.2
2017-Jul-22 16:00N 59°24' E 018°47'3 5.3
2017-Jul-22 15:26N 59°24' E 018°53'3 6.6
2017-Jul-22 15:00N 59°27' E 018°55'5 3.8
2017-Jul-22 13:45N 59°24' E 018°47'2 4.0
2017-Jul-22 13:13N 59°24' E 018°43'4 8.5
2017-Jul-22 12:48N 59°24' E 018°36'516.9
2017-Jul-22 12:31N 59°26' E 018°28'4 8.7
2017-Jul-22 12:00N 59°24' E 018°21'5 9.3
2017-Jul-22 11:31N 59°21' E 018°14'5 9.7
2017-Jul-22 11:00N 59°20' E 018°04'0 0.0
2017-Jul-22 10:30N 59°20' E 018°05'0 0.0
2017-Jul-22 10:00N 59°20' E 018°04'0 0.0
2017-Jul-22 09:30N 59°20' E 018°04'3 6.1
2017-Jul-22 09:00N 59°19' E 018°10'510.3
2017-Jul-22 08:30N 59°22' E 018°19'4 8.2
2017-Jul-22 08:00N 59°26' E 018°22'11 5.9
2017-Jul-22 06:05N 59°27' E 018°45'3 7.0
2017-Jul-22 05:38N 59°29' E 018°50'1 2.0
2017-Jul-22 05:01N 59°30' E 018°51'0 0.0
2017-Jul-22 05:00N 59°30' E 018°51'0 0.0
2017-Jul-22 04:30N 59°30' E 018°51'0 0.0
2017-Jul-22 04:00N 59°30' E 018°51'0 0.0
2017-Jul-22 03:26N 59°30' E 018°51'0 0.0
2017-Jul-22 02:59N 59°30' E 018°51'0 0.0
2017-Jul-22 02:30N 59°30' E 018°51'0 0.0
2017-Jul-22 01:50N 59°30' E 018°51'0 0.0
2017-Jul-22 01:28N 59°30' E 018°51'0 0.0
2017-Jul-22 01:00N 59°30' E 018°51'0 0.0
2017-Jul-21 23:43N 59°30' E 018°51'0 0.0
2017-Jul-21 23:30N 59°30' E 018°51'0 0.0
2017-Jul-21 22:59N 59°30' E 018°51'0 0.0
2017-Jul-21 22:30N 59°30' E 018°51'0 0.0
2017-Jul-21 21:54N 59°30' E 018°51'0 0.0
2017-Jul-21 21:29N 59°30' E 018°51'0 0.0
2017-Jul-21 20:11N 59°30' E 018°51'211.0
2017-Jul-21 20:00N 59°28' E 018°50'11 4.2
2017-Jul-21 17:22N 59°26' E 018°28'411.1
2017-Jul-21 17:00N 59°24' E 018°21'5 9.5
2017-Jul-21 16:31N 59°21' E 018°15'510.6
2017-Jul-21 16:00N 59°20' E 018°05'0 0.0
2017-Jul-21 15:30N 59°20' E 018°05'0 0.0
2017-Jul-21 15:00N 59°20' E 018°05'0 0.0
2017-Jul-21 14:30N 59°20' E 018°05'0 1.0
2017-Jul-21 14:00N 59°19' E 018°05'510.2
2017-Jul-21 13:30N 59°21' E 018°14'5 9.2
2017-Jul-21 13:00N 59°24' E 018°21'17 6.1
2017-Jul-21 10:15N 59°25' E 018°55'2 5.6
2017-Jul-21 09:58N 59°27' E 018°56'5 6.9
2017-Jul-21 09:18N 59°30' E 018°48'3 8.4
2017-Jul-21 08:56N 59°29' E 018°42'4 7.9
2017-Jul-21 08:28N 59°27' E 018°36'3 6.0
2017-Jul-21 08:00N 59°25' E 018°31'510.7
2017-Jul-21 07:30N 59°24' E 018°21'5 9.3
2017-Jul-21 07:01N 59°21' E 018°15'510.6
2017-Jul-21 06:30N 59°20' E 018°04'0 0.0
2017-Jul-21 06:00N 59°20' E 018°04'0 0.0
2017-Jul-21 05:30N 59°20' E 018°04'0 0.0
2017-Jul-21 05:00N 59°20' E 018°04'0 0.0
2017-Jul-21 04:30N 59°20' E 018°05'0 0.0
2017-Jul-21 04:00N 59°20' E 018°05'0 0.0
2017-Jul-21 03:30N 59°20' E 018°04'0 0.0
2017-Jul-21 03:00N 59°20' E 018°04'0 0.0
2017-Jul-21 02:30N 59°20' E 018°04'0 0.0
2017-Jul-21 02:00N 59°20' E 018°05'0 0.0
2017-Jul-21 01:30N 59°20' E 018°05'0 0.0
2017-Jul-21 01:00N 59°20' E 018°04'0 0.0
2017-Jul-21 00:30N 59°20' E 018°05'0 0.0
2017-Jul-21 00:00N 59°20' E 018°05'0 0.0
2017-Jul-20 23:30N 59°20' E 018°04'0 0.0
2017-Jul-20 23:00N 59°20' E 018°05'0 0.0
2017-Jul-20 22:30N 59°20' E 018°05'0 0.0
2017-Jul-20 22:00N 59°20' E 018°04'0 0.0
2017-Jul-20 21:30N 59°20' E 018°05'0 0.0
2017-Jul-20 21:00N 59°20' E 018°05'0 0.0
2017-Jul-20 20:30N 59°20' E 018°05'0 0.0
2017-Jul-20 20:00N 59°20' E 018°04'0 0.0
2017-Jul-20 19:30N 59°20' E 018°05'0 0.0
2017-Jul-20 19:00N 59°20' E 018°05'0 0.0
2017-Jul-20 18:30N 59°20' E 018°04'0 0.0
2017-Jul-20 18:00N 59°20' E 018°04'0 0.0
2017-Jul-20 17:30N 59°20' E 018°04'2 4.6
2017-Jul-20 17:00N 59°19' E 018°09'3 6.4
2017-Jul-20 16:30N 59°18' E 018°15'2 5.0
2017-Jul-20 16:00N 59°17' E 018°19'5 9.0
2017-Jul-20 15:31N 59°13' E 018°24'3 0.5
2017-Jul-20 08:52N 59°11' E 018°28'412.0
2017-Jul-20 08:30N 59°14' E 018°23'3 6.9
2017-Jul-20 08:00N 59°17' E 018°19'2 4.1
2017-Jul-20 07:31N 59°18' E 018°16'4 7.0
2017-Jul-20 07:00N 59°19' E 018°09'3 5.1
2017-Jul-20 06:30N 59°20' E 018°05'0 0.0
2017-Jul-20 06:00N 59°20' E 018°04'0 0.0
2017-Jul-20 05:30N 59°20' E 018°05'0 0.0
2017-Jul-20 05:00N 59°20' E 018°04'0 0.0
2017-Jul-20 04:30N 59°20' E 018°04'0 0.0
2017-Jul-20 04:00N 59°20' E 018°04'0 0.0
2017-Jul-20 03:30N 59°20' E 018°05'0 0.0
2017-Jul-20 03:00N 59°20' E 018°04'0 0.0
2017-Jul-20 02:30N 59°20' E 018°05'0 0.0
2017-Jul-20 02:00N 59°20' E 018°05'0 0.0
2017-Jul-20 01:30N 59°20' E 018°05'0 0.0
2017-Jul-20 01:00N 59°20' E 018°04'0 0.0
2017-Jul-20 00:30N 59°20' E 018°05'0 0.0
2017-Jul-20 00:00N 59°20' E 018°05'0 0.0
2017-Jul-19 23:30N 59°20' E 018°04'0 0.0
2017-Jul-19 23:00N 59°20' E 018°05'0 0.0
2017-Jul-19 22:30N 59°20' E 018°05'0 0.0
2017-Jul-19 22:00N 59°20' E 018°05'0 0.0
2017-Jul-19 21:31N 59°20' E 018°05'0 0.0
2017-Jul-19 21:00N 59°20' E 018°05'0 0.0
2017-Jul-19 20:30N 59°20' E 018°04'0 0.0
2017-Jul-19 20:00N 59°20' E 018°04'0 0.0
2017-Jul-19 19:30N 59°20' E 018°04'0 0.0
2017-Jul-19 19:00N 59°20' E 018°05'0 0.0
2017-Jul-19 18:31N 59°20' E 018°04'0 0.0
2017-Jul-19 18:00N 59°20' E 018°04'0 0.0
2017-Jul-19 17:30N 59°20' E 018°04'2 4.3
2017-Jul-19 17:00N 59°19' E 018°09'4 7.1
2017-Jul-19 16:31N 59°18' E 018°15'3 6.2
2017-Jul-19 16:00N 59°16' E 018°21'5 9.3
2017-Jul-19 15:30N 59°12' E 018°25'2 0.2
2017-Jul-19 08:44N 59°11' E 018°27'314.0
2017-Jul-19 08:29N 59°14' E 018°22'3 7.1
2017-Jul-19 08:00N 59°17' E 018°19'2 4.5
2017-Jul-19 07:30N 59°18' E 018°15'3 6.8
2017-Jul-19 07:00N 59°19' E 018°09'2 4.8
2017-Jul-19 06:30N 59°20' E 018°04'0 0.0
2017-Jul-19 06:00N 59°20' E 018°05'0 0.0
2017-Jul-19 05:30N 59°20' E 018°05'0 0.0
2017-Jul-19 05:00N 59°20' E 018°04'0 0.0
2017-Jul-19 04:30N 59°20' E 018°04'0 0.0
2017-Jul-19 04:00N 59°20' E 018°04'0 0.0
2017-Jul-19 03:30N 59°20' E 018°05'0 0.0
2017-Jul-19 03:00N 59°20' E 018°04'0 0.0
2017-Jul-19 02:30N 59°20' E 018°04'0 0.0
2017-Jul-19 02:00N 59°20' E 018°04'0 0.0
2017-Jul-19 01:30N 59°20' E 018°05'0 0.0
2017-Jul-19 01:00N 59°20' E 018°04'0 0.0
2017-Jul-19 00:30N 59°20' E 018°04'0 0.0
2017-Jul-19 00:00N 59°20' E 018°05'0 0.0
2017-Jul-18 23:30N 59°20' E 018°05'0 0.0
2017-Jul-18 23:00N 59°20' E 018°05'0 0.0
2017-Jul-18 22:30N 59°20' E 018°04'0 0.0
2017-Jul-18 22:00N 59°20' E 018°05'0 0.0
2017-Jul-18 21:30N 59°20' E 018°05'0 0.0
2017-Jul-18 21:00N 59°20' E 018°04'0 0.0
2017-Jul-18 20:30N 59°20' E 018°04'0 0.0
2017-Jul-18 20:00N 59°20' E 018°04'0 0.0
2017-Jul-18 19:30N 59°20' E 018°04'0 0.0
2017-Jul-18 19:00N 59°20' E 018°04'0 0.0
2017-Jul-18 18:30N 59°20' E 018°04'0 0.0
2017-Jul-18 18:00N 59°20' E 018°04'0 0.0
2017-Jul-18 17:30N 59°20' E 018°04'2 3.1
2017-Jul-18 17:00N 59°19' E 018°07'4 7.3
2017-Jul-18 16:30N 59°18' E 018°14'3 5.6
2017-Jul-18 16:00N 59°17' E 018°19'4 8.0
2017-Jul-18 15:30N 59°13' E 018°23'  

Dump ship's entire track history